Time;durP1;ratioP1;P1;durP2;ratioP2;P2;SDS_P1;SDS_P2;PMS_P1;PMS_P2;Temp;Humidity;BMP_temperature;BMP_pressure;BME280_temperature;BME280_humidity;BME280_pressure;Samples;Min_cycle;Max_cycle;Signal;HPM_P1;HPM_P2
2022/08/09 00:00:42;;;;;;;2.57;1.77;;;27.10;55.90;;;;;;4956330;29;20505;-77
2022/08/09 00:03:08;;;;;;;2.10;1.83;;;27.10;55.90;;;;;;4972341;28;20573;-77
2022/08/09 00:05:38;;;;;;;2.20;2.00;;;27.10;56.00;;;;;;4952577;29;20562;-76
2022/08/09 00:08:09;;;;;;;2.83;2.10;;;27.10;56.00;;;;;;4938775;29;20446;-76
2022/08/09 00:10:38;;;;;;;2.37;2.17;;;27.00;55.90;;;;;;4937516;28;20462;-76
2022/08/09 00:13:12;;;;;;;2.03;1.83;;;27.00;56.00;;;;;;4921414;29;20483;-77
2022/08/09 00:15:38;;;;;;;2.10;1.90;;;27.00;56.00;;;;;;4940575;29;20459;-77
2022/08/09 00:18:04;;;;;;;3.43;2.10;;;27.00;56.00;;;;;;4941904;29;20448;-77
2022/08/09 00:20:30;;;;;;;2.57;1.80;;;27.00;56.00;;;;;;4942770;29;20419;-77
2022/08/09 00:22:59;;;;;;;1.87;1.63;;;27.00;56.10;;;;;;4936857;29;20452;-77
2022/08/09 00:25:25;;;;;;;3.17;1.83;;;27.00;56.10;;;;;;4937116;29;20467;-76
2022/08/09 00:27:53;;;;;;;2.90;2.40;;;27.00;56.20;;;;;;4936528;29;20424;-76
2022/08/09 00:30:19;;;;;;;2.50;1.90;;;27.00;56.20;;;;;;4938505;29;20467;-78
2022/08/09 00:32:45;;;;;;;3.03;2.20;;;26.90;56.10;;;;;;4954775;29;20490;-75
2022/08/09 00:35:11;;;;;;;5.23;2.47;;;26.90;56.20;;;;;;4955047;29;20474;-76
2022/08/09 00:37:38;;;;;;;2.00;1.90;;;26.90;56.20;;;;;;4950608;29;20243;-76
2022/08/09 00:40:07;;;;;;;2.43;1.90;;;26.90;56.20;;;;;;4939684;29;20434;-76
2022/08/09 00:42:33;;;;;;;2.63;2.20;;;26.80;56.20;;;;;;4959706;28;21047;-75
2022/08/09 00:45:03;;;;;;;3.40;2.37;;;26.80;56.20;;;;;;4935877;29;20491;-76
2022/08/09 00:47:30;;;;;;;2.20;2.00;;;26.80;56.20;;;;;;4929277;29;20427;-76
2022/08/09 00:49:59;;;;;;;2.93;1.87;;;26.80;56.20;;;;;;4955001;29;20827;-75
2022/08/09 00:52:26;;;;;;;2.63;2.10;;;26.80;56.30;;;;;;4948525;29;20440;-76
2022/08/09 00:54:55;;;;;;;2.03;1.83;;;26.70;56.20;;;;;;4920167;29;20436;-76
2022/08/09 00:57:25;;;;;;;2.50;2.13;;;26.70;56.20;;;;;;4951412;29;20446;-76
2022/08/09 00:59:51;;;;;;;2.47;2.03;;;26.70;56.30;;;;;;4954099;28;20510;-76
2022/08/09 01:02:20;;;;;;;2.10;1.90;;;26.70;56.30;;;;;;4943540;29;20493;-75
2022/08/09 01:04:47;;;;;;;2.57;2.10;;;26.70;56.40;;;;;;4969725;28;20467;-76
2022/08/09 01:07:26;;;;;;;2.40;2.20;;;26.70;56.40;;;;;;4956627;28;20780;-76
2022/08/09 01:10:17;;;;;;;4.33;1.90;;;26.60;56.30;;;;;;4935555;29;20439;-76
2022/08/09 01:12:55;;;;;;;1.87;1.77;;;26.60;56.30;;;;;;4943612;29;20443;-76
2022/08/09 01:15:29;;;;;;;2.10;1.90;;;26.60;56.70;;;;;;4954611;29;20983;-76
2022/08/09 01:17:59;;;;;;;2.67;1.93;;;26.60;56.40;;;;;;4935097;29;20509;-76
2022/08/09 01:20:41;;;;;;;2.23;1.80;;;26.60;56.50;;;;;;4935590;29;20455;-75
2022/08/09 01:23:30;;;;;;;2.03;1.93;;;26.60;56.50;;;;;;4937110;29;20530;-75
2022/08/09 01:26:31;;;;;;;2.10;1.90;;;26.50;56.50;;;;;;4941791;29;20832;-76
2022/08/09 01:29:05;;;;;;;2.10;1.80;;;26.50;56.50;;;;;;4925809;29;20457;-76
2022/08/09 01:31:36;;;;;;;3.57;2.10;;;26.50;56.60;;;;;;4945542;29;20494;-74
2022/08/09 01:34:06;;;;;;;3.00;2.03;;;26.50;56.60;;;;;;4955487;28;20486;-75
2022/08/09 01:36:39;;;;;;;2.07;1.87;;;26.40;56.60;;;;;;4967452;28;20807;-75
2022/08/09 01:39:08;;;;;;;2.83;1.90;;;26.40;56.60;;;;;;4959542;28;20839;-75
2022/08/09 01:41:40;;;;;;;1.97;1.77;;;26.40;56.60;;;;;;4935113;29;20542;-75
2022/08/09 01:44:07;;;;;;;2.40;1.90;;;26.40;56.70;;;;;;4954017;29;20456;-75
2022/08/09 01:46:38;;;;;;;3.90;1.80;;;26.40;56.70;;;;;;4953775;29;20890;-75
2022/08/09 01:49:10;;;;;;;1.77;1.67;;;26.40;56.70;;;;;;4919099;29;20422;-76
2022/08/09 01:51:40;;;;;;;3.00;1.83;;;26.40;56.80;;;;;;4934847;29;20470;-75
2022/08/09 01:54:08;;;;;;;4.77;2.13;;;26.30;56.70;;;;;;4934406;29;20505;-75
2022/08/09 01:56:38;;;;;;;2.40;1.73;;;26.30;56.80;;;;;;4920770;29;20486;-75
2022/08/09 01:59:09;;;;;;;2.87;1.60;;;26.30;56.80;;;;;;4943967;29;20446;-76
2022/08/09 02:01:40;;;;;;;2.00;1.80;;;26.30;56.80;;;;;;4936165;29;20453;-75
2022/08/09 02:04:11;;;;;;;2.23;1.83;;;26.30;56.80;;;;;;4953742;29;20395;-75
2022/08/09 02:09:26;;;;;;;2.17;1.73;;;26.30;56.90;;;;;;4934461;29;20450;-75
2022/08/09 02:11:54;;;;;;;2.43;1.93;;;26.20;56.90;;;;;;4921663;29;20447;-75
2022/08/09 02:14:26;;;;;;;1.90;1.70;;;26.20;56.90;;;;;;4953616;29;20807;-76
2022/08/09 02:17:00;;;;;;;2.40;2.13;;;26.20;56.90;;;;;;4951683;29;20467;-75
2022/08/09 02:19:29;;;;;;;1.50;1.40;;;26.20;57.00;;;;;;4953393;29;20461;-74
2022/08/09 02:22:08;;;;;;;2.00;1.63;;;26.20;57.00;;;;;;4943769;29;20443;-76
2022/08/09 02:24:37;;;;;;;4.00;1.80;;;26.10;57.00;;;;;;4953270;29;20407;-75
2022/08/09 02:27:07;;;;;;;3.87;1.77;;;26.10;57.00;;;;;;4924203;29;20436;-76
2022/08/09 02:29:39;;;;;;;2.40;1.97;;;26.10;57.10;;;;;;4933873;29;20770;-76
2022/08/09 02:32:09;;;;;;;2.50;1.80;;;26.10;57.10;;;;;;4944483;28;20454;-76
2022/08/09 02:34:36;;;;;;;2.10;1.80;;;26.10;57.10;;;;;;4952956;29;20404;-76
2022/08/09 02:37:06;;;;;;;2.40;2.10;;;26.10;57.10;;;;;;4935924;29;20470;-76
2022/08/09 02:39:40;;;;;;;2.57;2.00;;;26.00;57.10;;;;;;4953130;28;20558;-76
2022/08/09 02:42:15;;;;;;;4.13;2.10;;;26.00;57.20;;;;;;4947900;29;20452;-76
2022/08/09 02:44:49;;;;;;;1.80;1.60;;;26.00;57.80;;;;;;4933720;29;20416;-76
2022/08/09 02:47:20;;;;;;;1.90;1.70;;;26.00;57.20;;;;;;4946169;29;20422;-76
2022/08/09 02:50:04;;;;;;;2.80;1.60;;;25.90;57.20;;;;;;4919159;29;20822;-76
2022/08/09 02:52:42;;;;;;;2.30;1.67;;;26.00;57.30;;;;;;4941152;29;20511;-76
2022/08/09 02:55:12;;;;;;;1.80;1.70;;;25.90;57.30;;;;;;4917674;29;20443;-76
2022/08/09 02:57:42;;;;;;;1.60;1.50;;;25.90;57.40;;;;;;4952373;29;20449;-76
2022/08/09 03:00:10;;;;;;;2.63;1.90;;;25.90;57.40;;;;;;4950197;29;20417;-76
2022/08/09 03:02:42;;;;;;;3.00;2.07;;;25.90;57.40;;;;;;4936580;29;20466;-75
2022/08/09 03:05:11;;;;;;;2.20;2.00;;;25.90;57.50;;;;;;4947704;29;20470;-76
2022/08/09 03:07:41;;;;;;;1.93;1.77;;;25.90;57.50;;;;;;4972254;23;20497;-71
2022/08/09 03:10:10;;;;;;;2.53;2.00;;;25.80;57.40;;;;;;4963461;28;20452;-70
2022/08/09 03:12:42;;;;;;;3.43;2.07;;;25.80;57.40;;;;;;4962918;28;20485;-70
2022/08/09 03:15:09;;;;;;;1.70;1.60;;;25.80;57.50;;;;;;4942785;28;20414;-71
2022/08/09 03:17:36;;;;;;;2.27;2.07;;;25.80;57.50;;;;;;4971131;28;20785;-70
2022/08/09 03:20:08;;;;;;;1.97;1.73;;;25.80;57.60;;;;;;4962363;28;20443;-69
2022/08/09 03:22:38;;;;;;;1.80;1.70;;;25.80;57.60;;;;;;4943878;29;20545;-69
2022/08/09 03:25:08;;;;;;;4.80;1.90;;;25.70;57.60;;;;;;4958822;28;20415;-70
2022/08/09 03:27:34;;;;;;;2.70;2.03;;;25.70;57.60;;;;;;4967423;28;20866;-69
2022/08/09 03:30:05;;;;;;;2.10;1.90;;;25.70;57.60;;;;;;4957907;28;20418;-69
2022/08/09 03:32:37;;;;;;;2.80;2.00;;;25.70;57.70;;;;;;4938877;29;20457;-70
2022/08/09 03:35:06;;;;;;;4.40;2.13;;;25.70;57.70;;;;;;4948132;28;20444;-69
2022/08/09 03:37:36;;;;;;;4.20;1.73;;;25.70;57.80;;;;;;4961409;28;20457;-69
2022/08/09 03:40:03;;;;;;;2.10;2.00;;;25.60;57.70;;;;;;4964815;28;20415;-69
2022/08/09 03:42:29;;;;;;;2.73;2.23;;;25.60;57.80;;;;;;4959874;28;20540;-70
2022/08/09 03:44:57;;;;;;;2.27;1.80;;;25.60;57.80;;;;;;4947289;28;20421;-69
2022/08/09 03:47:26;;;;;;;2.27;1.53;;;25.60;57.80;;;;;;4978999;28;20842;-69
2022/08/09 03:49:52;;;;;;;4.73;1.83;;;25.60;57.80;;;;;;4949253;29;20425;-69
2022/08/09 03:52:24;;;;;;;2.67;2.10;;;25.60;57.90;;;;;;4966928;28;20532;-69
2022/08/09 03:54:51;;;;;;;2.70;2.37;;;25.60;58.00;;;;;;4972532;28;20418;-69
2022/08/09 03:57:18;;;;;;;3.13;1.90;;;25.50;57.90;;;;;;4943547;28;20491;-69
2022/08/09 03:59:45;;;;;;;2.10;1.87;;;25.50;58.00;;;;;;4961626;28;20430;-69
2022/08/09 04:02:11;;;;;;;2.03;1.80;;;25.50;58.00;;;;;;4968505;28;20443;-68
2022/08/09 04:04:39;;;;;;;1.80;1.70;;;25.50;58.00;;;;;;4942063;29;20733;-69
2022/08/09 04:07:10;;;;;;;2.53;1.90;;;25.50;58.00;;;;;;4955503;28;20453;-69
2022/08/09 04:09:36;;;;;;;3.50;1.80;;;25.50;58.00;;;;;;4953859;28;20443;-69
2022/08/09 04:12:08;;;;;;;2.30;2.10;;;25.40;58.10;;;;;;4965425;28;20496;-69
2022/08/09 04:14:34;;;;;;;2.40;2.20;;;25.40;58.20;;;;;;4977981;28;20450;-69
2022/08/09 04:17:03;;;;;;;2.20;2.00;;;25.40;58.20;;;;;;4978425;28;20437;-69
2022/08/09 04:19:29;;;;;;;2.17;1.80;;;25.40;58.20;;;;;;4976938;28;20517;-69
2022/08/09 04:21:58;;;;;;;1.90;1.80;;;25.40;58.20;;;;;;4973144;28;20603;-69
2022/08/09 04:24:26;;;;;;;2.07;1.83;;;25.40;58.30;;;;;;4942376;28;20450;-70
2022/08/09 04:26:53;;;;;;;3.10;2.40;;;25.40;58.30;;;;;;4977179;28;20453;-69
2022/08/09 04:29:19;;;;;;;3.17;2.00;;;25.40;58.30;;;;;;4966329;28;20982;-69
2022/08/09 04:31:46;;;;;;;2.30;1.70;;;25.30;58.30;;;;;;4957211;28;20457;-70
2022/08/09 04:34:12;;;;;;;2.60;1.80;;;25.30;58.40;;;;;;4954227;28;20466;-69
2022/08/09 04:36:42;;;;;;;3.50;1.93;;;25.30;58.40;;;;;;4958070;28;20510;-69
2022/08/09 04:39:08;;;;;;;2.03;1.90;;;25.30;58.40;;;;;;4975667;28;20417;-69
2022/08/09 04:41:36;;;;;;;2.10;1.90;;;25.30;58.40;;;;;;4973477;28;20442;-70
2022/08/09 04:44:10;;;;;;;1.93;1.80;;;25.20;58.40;;;;;;4955146;29;20411;-71
2022/08/09 04:46:38;;;;;;;2.53;1.80;;;25.20;58.40;;;;;;4956333;28;20492;-70
2022/08/09 04:49:07;;;;;;;2.33;1.70;;;25.20;58.60;;;;;;4955146;29;20822;-70
2022/08/09 04:51:36;;;;;;;2.47;2.27;;;25.20;58.60;;;;;;4957987;28;20450;-71
2022/08/09 04:54:05;;;;;;;2.87;2.33;;;25.20;58.70;;;;;;4967732;28;20940;-70
2022/08/09 04:56:31;;;;;;;1.70;1.60;;;25.20;58.60;;;;;;4954736;28;20869;-71
2022/08/09 04:58:57;;;;;;;2.70;2.10;;;25.20;58.70;;;;;;4954419;29;20419;-71
2022/08/09 05:01:52;;;;;;;2.20;2.00;;;25.20;58.80;;;;;;4954011;28;20498;-70
2022/08/09 05:04:18;;;;;;;2.50;2.07;;;25.10;58.70;;;;;;4974824;28;20467;-70
2022/08/09 05:06:44;;;;;;;2.13;1.93;;;25.10;58.70;;;;;;4974201;28;20807;-69
2022/08/09 05:09:10;;;;;;;3.00;2.07;;;25.10;58.70;;;;;;4960298;28;20462;-69
2022/08/09 05:11:36;;;;;;;1.90;1.77;;;25.10;58.70;;;;;;4955753;28;21164;-70
2022/08/09 05:14:03;;;;;;;2.50;1.67;;;25.10;59.40;;;;;;4945402;28;20462;-70
2022/08/09 05:16:34;;;;;;;2.20;2.00;;;25.10;58.90;;;;;;4973620;28;20558;-70
2022/08/09 05:19:00;;;;;;;2.53;1.90;;;25.00;58.90;;;;;;4967612;28;20497;-69
2022/08/09 05:21:27;;;;;;;2.20;2.00;;;25.00;59.00;;;;;;4973648;28;20434;-70
2022/08/09 05:23:53;;;;;;;2.27;2.07;;;25.00;59.00;;;;;;4967825;28;20427;-70
2022/08/09 05:26:19;;;;;;;4.50;1.70;;;25.00;59.60;;;;;;4955660;28;20951;-70
2022/08/09 05:28:48;;;;;;;2.23;1.87;;;25.00;59.10;;;;;;4966773;28;20432;-70
2022/08/09 05:31:14;;;;;;;2.60;1.97;;;25.00;59.10;;;;;;4974872;28;20500;-68
2022/08/09 05:33:43;;;;;;;2.63;1.90;;;25.00;59.20;;;;;;4959809;28;20436;-69
2022/08/09 05:36:12;;;;;;;2.10;1.90;;;24.90;59.20;;;;;;4961918;28;20537;-69
2022/08/09 05:38:38;;;;;;;2.10;1.90;;;24.90;59.20;;;;;;4971327;28;20426;-69
2022/08/09 05:41:04;;;;;;;2.80;2.07;;;24.90;59.30;;;;;;4962254;28;20434;-70
2022/08/09 05:43:34;;;;;;;3.30;3.00;;;24.90;59.30;;;;;;4955058;28;20455;-70
2022/08/09 05:46:05;;;;;;;2.70;2.30;;;24.90;60.10;;;;;;4953838;28;20399;-69
2022/08/09 05:48:33;;;;;;;3.13;2.07;;;24.80;60.50;;;;;;4938055;29;20419;-70
2022/08/09 05:50:59;;;;;;;3.10;2.37;;;24.70;60.30;;;;;;4954690;28;20477;-70
2022/08/09 05:53:25;;;;;;;5.77;2.30;;;24.70;60.40;;;;;;4954900;29;20807;-70
2022/08/09 05:55:51;;;;;;;2.40;2.20;;;24.70;60.40;;;;;;4953681;29;20470;-70
2022/08/09 05:58:17;;;;;;;3.10;2.20;;;24.70;60.40;;;;;;4937773;29;20419;-70
2022/08/09 06:00:43;;;;;;;2.87;2.57;;;24.70;60.50;;;;;;4953767;29;20458;-70
2022/08/09 06:03:11;;;;;;;2.73;2.10;;;24.70;60.50;;;;;;4953214;29;20467;-70
2022/08/09 06:05:40;;;;;;;2.40;2.20;;;24.70;60.40;;;;;;4954423;28;20937;-69
2022/08/09 06:08:06;;;;;;;2.60;2.13;;;24.70;60.40;;;;;;4955016;28;20502;-69
2022/08/09 06:10:38;;;;;;;2.30;2.10;;;24.70;60.30;;;;;;4954588;28;20399;-69
2022/08/09 06:13:07;;;;;;;3.10;2.17;;;24.70;60.40;;;;;;4953222;29;20443;-69
2022/08/09 06:15:33;;;;;;;2.33;1.90;;;24.70;60.40;;;;;;4954422;28;20513;-71
2022/08/09 06:18:02;;;;;;;2.97;2.10;;;24.70;60.40;;;;;;4953411;29;20463;-70
2022/08/09 06:20:34;;;;;;;2.90;2.10;;;24.70;60.40;;;;;;4953365;29;20411;-69
2022/08/09 06:23:00;;;;;;;2.70;2.20;;;24.70;60.50;;;;;;4953994;28;20923;-69
2022/08/09 06:25:27;;;;;;;3.37;2.10;;;24.70;61.30;;;;;;4937385;29;20453;-70
2022/08/09 06:27:55;;;;;;;2.70;1.90;;;24.60;60.30;;;;;;4954280;28;20550;-70
2022/08/09 06:30:27;;;;;;;3.03;2.23;;;24.60;60.30;;;;;;4954232;28;20407;-70
2022/08/09 06:32:54;;;;;;;2.80;2.50;;;24.60;60.30;;;;;;4954273;28;20839;-69
2022/08/09 06:35:20;;;;;;;2.50;2.30;;;24.60;60.60;;;;;;4953849;28;20423;-70
2022/08/09 06:37:48;;;;;;;3.90;2.43;;;24.60;60.70;;;;;;4952562;29;20756;-69
2022/08/09 06:40:17;;;;;;;2.37;2.17;;;24.60;60.60;;;;;;4952890;29;20929;-70
2022/08/09 06:42:45;;;;;;;2.30;2.10;;;24.60;60.50;;;;;;4921254;29;20435;-70
2022/08/09 06:45:11;;;;;;;3.37;2.23;;;24.60;60.50;;;;;;4952722;29;20395;-70
2022/08/09 06:47:37;;;;;;;2.23;1.93;;;24.60;60.50;;;;;;4952913;29;20442;-70
2022/08/09 06:50:07;;;;;;;2.20;2.00;;;24.60;60.50;;;;;;4952438;29;20383;-70
2022/08/09 06:52:35;;;;;;;3.27;2.07;;;24.60;60.60;;;;;;4936990;29;20926;-70
2022/08/09 06:55:04;;;;;;;2.90;2.70;;;24.60;60.50;;;;;;4952821;29;20465;-69
2022/08/09 06:57:30;;;;;;;2.47;2.03;;;24.60;60.30;;;;;;4953088;28;20412;-69
2022/08/09 06:59:56;;;;;;;2.00;1.90;;;24.60;60.30;;;;;;4952563;29;20427;-69
2022/08/09 07:02:25;;;;;;;3.97;1.77;;;24.60;60.30;;;;;;4953654;29;20479;-70
2022/08/09 07:04:53;;;;;;;3.60;2.00;;;24.60;60.40;;;;;;4952458;29;20434;-69
2022/08/09 07:07:21;;;;;;;2.10;1.90;;;24.60;60.30;;;;;;4951939;29;20451;-70
2022/08/09 07:09:47;;;;;;;3.87;2.00;;;24.60;60.20;;;;;;4953653;28;20411;-69
2022/08/09 07:12:13;;;;;;;2.27;2.07;;;24.60;60.10;;;;;;4936608;29;20583;-70
2022/08/09 07:14:41;;;;;;;2.60;2.10;;;24.60;60.10;;;;;;4953720;28;20407;-70
2022/08/09 07:17:07;;;;;;;2.80;2.13;;;24.60;60.10;;;;;;4952291;29;20986;-70
2022/08/09 07:19:34;;;;;;;2.10;1.90;;;24.60;60.10;;;;;;4953592;29;20641;-70
2022/08/09 07:22:00;;;;;;;2.20;2.00;;;24.60;60.00;;;;;;4952423;29;20431;-70
2022/08/09 07:24:32;;;;;;;1.83;1.73;;;24.60;60.00;;;;;;4952455;29;20951;-70
2022/08/09 07:27:01;;;;;;;2.83;1.77;;;24.60;60.00;;;;;;4953482;28;20403;-70
2022/08/09 07:29:28;;;;;;;2.73;2.30;;;24.60;59.90;;;;;;4953356;28;20824;-70
2022/08/09 07:31:58;;;;;;;2.80;2.20;;;24.60;59.90;;;;;;4953227;28;20481;-70
2022/08/09 07:34:26;;;;;;;3.57;2.27;;;24.60;60.00;;;;;;4952548;29;20490;-70
2022/08/09 07:36:52;;;;;;;2.63;1.90;;;24.60;60.10;;;;;;4953268;28;20455;-70
2022/08/09 07:39:20;;;;;;;2.10;2.00;;;24.60;60.10;;;;;;4953354;28;20952;-69
2022/08/09 07:41:51;;;;;;;3.33;2.30;;;24.70;60.30;;;;;;4953333;28;20437;-70
2022/08/09 07:44:17;;;;;;;4.10;2.10;;;24.70;60.30;;;;;;4953313;28;20960;-70
2022/08/09 07:46:43;;;;;;;7.40;2.33;;;24.70;60.50;;;;;;4953371;29;20399;-69
2022/08/09 07:49:12;;;;;;;2.40;2.20;;;24.70;60.60;;;;;;4952226;29;20848;-70
2022/08/09 07:51:38;;;;;;;2.60;2.40;;;24.70;60.60;;;;;;4951829;29;20457;-70
2022/08/09 07:54:07;;;;;;;2.50;2.13;;;24.70;60.70;;;;;;4953361;28;20403;-70
2022/08/09 07:56:36;;;;;;;5.53;2.63;;;24.70;60.70;;;;;;4952056;29;20443;-70
2022/08/09 07:59:03;;;;;;;2.70;2.47;;;24.70;60.70;;;;;;4936124;29;20423;-69
2022/08/09 08:01:34;;;;;;;2.63;2.43;;;24.70;60.60;;;;;;4952171;29;20961;-70
2022/08/09 08:04:02;;;;;;;2.30;2.10;;;24.70;60.70;;;;;;4953013;28;20399;-70
2022/08/09 08:06:36;;;;;;;2.50;2.30;;;24.80;60.90;;;;;;4953316;28;20450;-70
2022/08/09 08:09:03;;;;;;;2.50;2.30;;;24.80;60.90;;;;;;4954613;28;20458;-70
2022/08/09 08:11:37;;;;;;;4.13;2.70;;;24.80;60.80;;;;;;4955663;29;20460;-70
2022/08/09 08:14:03;;;;;;;3.30;2.30;;;24.80;60.80;;;;;;4955697;29;20483;-70
2022/08/09 08:16:31;;;;;;;2.20;2.03;;;24.80;60.80;;;;;;4955427;29;20553;-69
2022/08/09 08:19:02;;;;;;;6.03;2.50;;;24.80;60.80;;;;;;4939535;29;20442;-70
2022/08/09 08:21:29;;;;;;;3.37;2.80;;;24.80;60.90;;;;;;4939545;29;20789;-70
2022/08/09 08:23:55;;;;;;;4.30;2.60;;;24.80;60.70;;;;;;4956544;29;20399;-70
2022/08/09 08:26:25;;;;;;;2.60;2.40;;;24.90;60.80;;;;;;4956590;28;20931;-70
2022/08/09 08:28:51;;;;;;;3.70;2.80;;;24.90;60.90;;;;;;4956177;28;20411;-69
2022/08/09 08:31:19;;;;;;;3.10;2.80;;;24.90;60.80;;;;;;4956444;28;20430;-69
2022/08/09 08:33:48;;;;;;;3.40;2.73;;;24.90;60.90;;;;;;4946193;28;20519;-70
2022/08/09 08:36:14;;;;;;;3.13;2.87;;;24.90;61.00;;;;;;4962390;28;20469;-70
2022/08/09 08:38:40;;;;;;;2.63;2.43;;;24.90;61.00;;;;;;4955457;29;20912;-69
2022/08/09 08:41:09;;;;;;;2.80;2.50;;;24.90;60.90;;;;;;4956637;28;20403;-69
2022/08/09 08:43:40;;;;;;;2.83;2.63;;;25.00;61.00;;;;;;4954069;29;20466;-70
2022/08/09 08:46:09;;;;;;;2.60;2.40;;;25.00;60.90;;;;;;4957702;28;20428;-70
2022/08/09 08:48:37;;;;;;;4.20;2.90;;;25.00;61.10;;;;;;4937186;29;20752;-70
2022/08/09 08:51:08;;;;;;;2.80;2.60;;;25.00;61.10;;;;;;4936139;29;20420;-69
2022/08/09 08:53:35;;;;;;;3.20;2.80;;;25.00;61.10;;;;;;4920380;29;20591;-70
2022/08/09 08:56:04;;;;;;;4.00;2.77;;;25.00;60.90;;;;;;4968091;28;20473;-70
2022/08/09 08:58:32;;;;;;;2.80;2.60;;;25.00;60.90;;;;;;4937039;29;20427;-70
2022/08/09 09:00:58;;;;;;;3.70;2.70;;;25.00;60.90;;;;;;4937141;29;20454;-69
2022/08/09 09:03:32;;;;;;;2.93;2.60;;;25.10;61.00;;;;;;4935981;29;20465;-70
2022/08/09 09:06:00;;;;;;;4.00;3.10;;;25.10;60.90;;;;;;4944517;29;20521;-70
2022/08/09 09:08:33;;;;;;;3.33;2.50;;;25.10;60.90;;;;;;4954877;29;20412;-69
2022/08/09 09:11:02;;;;;;;3.40;3.10;;;25.20;61.00;;;;;;4938772;29;20443;-69
2022/08/09 09:13:33;;;;;;;3.13;2.70;;;25.20;61.00;;;;;;4956032;28;20537;-69
2022/08/09 09:16:02;;;;;;;7.40;2.70;;;25.20;61.00;;;;;;4954714;29;20994;-70
2022/08/09 09:18:28;;;;;;;3.13;2.83;;;25.30;61.10;;;;;;4954718;29;20400;-70
2022/08/09 09:20:57;;;;;;;4.27;2.90;;;25.30;61.10;;;;;;4955429;28;20422;-69
2022/08/09 09:23:42;;;;;;;3.17;2.87;;;25.30;61.10;;;;;;4954699;29;20904;-69
2022/08/09 09:26:10;;;;;;;4.23;3.03;;;25.40;60.90;;;;;;4955773;28;20403;-70
2022/08/09 09:28:36;;;;;;;3.40;3.10;;;25.40;60.80;;;;;;4955579;28;20492;-70
2022/08/09 09:31:15;;;;;;;3.73;3.23;;;25.40;60.90;;;;;;4938553;29;20467;-70
2022/08/09 09:33:44;;;;;;;5.97;3.07;;;25.40;60.80;;;;;;4954420;29;20394;-70
2022/08/09 09:36:15;;;;;;;3.60;3.23;;;25.50;60.80;;;;;;4954210;29;20463;-69
2022/08/09 09:38:58;;;;;;;3.13;2.90;;;25.50;61.50;;;;;;4955622;29;20407;-70
2022/08/09 09:41:25;;;;;;;4.23;3.40;;;25.50;60.60;;;;;;4938032;29;20469;-70
2022/08/09 09:43:56;;;;;;;5.63;2.93;;;25.60;60.80;;;;;;4954377;29;20424;-69
2022/08/09 09:46:40;;;;;;;3.53;2.90;;;25.60;60.60;;;;;;4938435;29;20844;-70
2022/08/09 09:49:17;;;;;;;3.40;3.10;;;25.60;60.50;;;;;;4938536;29;20430;-70
2022/08/09 09:51:48;;;;;;;3.20;2.90;;;25.70;60.40;;;;;;4954268;29;20547;-70
2022/08/09 09:54:35;;;;;;;4.30;3.03;;;25.70;60.40;;;;;;4940183;29;20408;-70
2022/08/09 09:57:18;;;;;;;3.80;3.20;;;25.70;60.20;;;;;;4937951;29;20478;-70
2022/08/09 09:59:50;;;;;;;3.83;3.13;;;25.80;60.90;;;;;;4955154;28;20482;-69
2022/08/09 10:02:17;;;;;;;3.70;3.33;;;25.80;60.00;;;;;;4938056;29;20446;-70
2022/08/09 10:05:11;;;;;;;3.30;3.00;;;25.90;59.90;;;;;;4955055;28;20932;-70
2022/08/09 10:07:37;;;;;;;2.73;2.53;;;25.90;59.80;;;;;;4953814;29;20435;-69
2022/08/09 10:10:04;;;;;;;3.00;2.70;;;25.90;59.70;;;;;;4954767;28;20445;-70
2022/08/09 10:12:38;;;;;;;3.37;3.07;;;26.00;59.70;;;;;;4934217;29;20521;-69
2022/08/09 10:15:15;;;;;;;3.80;2.97;;;26.00;59.50;;;;;;4934628;29;20409;-69
2022/08/09 10:17:49;;;;;;;8.43;3.33;;;26.00;59.40;;;;;;4918557;29;20798;-70
2022/08/09 10:20:19;;;;;;;4.47;3.27;;;26.10;59.40;;;;;;4934486;29;20399;-70
2022/08/09 10:22:54;;;;;;;3.73;3.33;;;26.10;59.40;;;;;;4934325;29;20545;-70
2022/08/09 10:25:26;;;;;;;3.70;3.23;;;26.10;59.30;;;;;;4935279;29;20451;-70
2022/08/09 10:27:52;;;;;;;4.20;3.20;;;26.10;59.30;;;;;;4935444;29;20908;-70
2022/08/09 10:30:21;;;;;;;3.90;3.30;;;26.20;59.20;;;;;;4934392;29;20438;-70
2022/08/09 10:32:48;;;;;;;4.13;3.73;;;26.20;59.10;;;;;;4933291;29;20531;-69
2022/08/09 10:35:14;;;;;;;3.60;3.30;;;26.30;59.20;;;;;;4950172;29;20423;-70
2022/08/09 10:37:42;;;;;;;4.27;3.37;;;26.30;59.10;;;;;;4934400;29;20468;-69
2022/08/09 10:40:10;;;;;;;3.60;3.30;;;26.30;59.00;;;;;;4934127;29;20475;-70
2022/08/09 10:42:39;;;;;;;3.90;3.43;;;26.40;59.00;;;;;;4936015;29;20466;-70
2022/08/09 10:45:10;;;;;;;4.60;3.73;;;26.40;58.90;;;;;;4937514;29;20435;-70
2022/08/09 10:47:59;;;;;;;3.23;3.00;;;26.40;58.80;;;;;;4954286;28;20159;-70
2022/08/09 10:53:34;;;;;;;3.50;3.20;;;26.50;58.70;;;;;;4954292;29;20470;-70
2022/08/09 10:56:24;;;;;;;3.77;3.37;;;26.50;58.60;;;;;;4936944;29;20550;-70
2022/08/09 10:58:56;;;;;;;3.60;3.30;;;26.60;58.60;;;;;;4953073;29;20438;-70
2022/08/09 11:01:36;;;;;;;4.63;3.47;;;26.60;58.50;;;;;;4954090;28;20992;-70
2022/08/09 11:04:08;;;;;;;4.00;3.70;;;26.70;58.60;;;;;;4954185;28;20756;-71
2022/08/09 11:06:38;;;;;;;4.83;3.37;;;26.70;58.50;;;;;;4937027;29;20455;-70
2022/08/09 11:09:06;;;;;;;3.60;3.27;;;26.70;58.40;;;;;;4953988;28;20497;-70
2022/08/09 11:11:54;;;;;;;3.90;3.60;;;26.70;58.30;;;;;;4953916;28;20455;-69
2022/08/09 11:14:37;;;;;;;4.17;3.77;;;26.80;58.30;;;;;;4952289;29;20932;-71
2022/08/09 11:17:28;;;;;;;5.20;3.70;;;26.80;58.20;;;;;;4956786;29;20538;-71
2022/08/09 11:20:11;;;;;;;4.20;3.43;;;26.90;58.10;;;;;;4940132;29;20426;-71
2022/08/09 11:22:43;;;;;;;4.07;3.37;;;26.90;58.00;;;;;;4940487;29;20443;-71
2022/08/09 11:25:20;;;;;;;3.57;3.27;;;26.90;57.90;;;;;;4957372;28;20486;-71
2022/08/09 11:27:52;;;;;;;4.30;3.63;;;27.00;57.80;;;;;;4939665;29;20427;-71
2022/08/09 11:30:21;;;;;;;4.13;3.33;;;27.00;57.80;;;;;;4955466;29;20404;-71
2022/08/09 11:33:00;;;;;;;3.90;3.50;;;27.00;57.80;;;;;;4956728;28;20450;-71
2022/08/09 11:35:40;;;;;;;5.03;4.10;;;27.10;57.80;;;;;;4955860;29;20446;-71
2022/08/09 11:38:20;;;;;;;4.20;3.73;;;27.10;57.70;;;;;;4939650;29;20497;-71
2022/08/09 11:40:47;;;;;;;3.93;3.63;;;27.10;57.60;;;;;;4956848;28;20407;-71
2022/08/09 11:43:51;;;;;;;4.17;3.87;;;27.20;57.60;;;;;;4945713;29;20427;-71
2022/08/09 11:46:21;;;;;;;3.70;3.50;;;27.20;57.50;;;;;;4959591;29;20399;-71
2022/08/09 11:48:57;;;;;;;3.77;3.47;;;27.30;57.50;;;;;;4960271;28;20410;-71
2022/08/09 11:51:28;;;;;;;4.37;4.07;;;27.30;57.50;;;;;;4959439;29;20450;-71
2022/08/09 11:54:15;;;;;;;3.90;3.57;;;27.30;57.40;;;;;;4959133;29;20483;-71
2022/08/09 11:56:46;;;;;;;4.37;3.77;;;27.40;57.30;;;;;;4960168;28;20967;-71
2022/08/09 11:59:26;;;;;;;4.37;4.00;;;27.40;57.30;;;;;;4959224;29;20399;-71
2022/08/09 12:01:52;;;;;;;4.10;3.80;;;27.40;57.20;;;;;;4960285;28;20462;-71
2022/08/09 12:04:19;;;;;;;3.93;3.63;;;27.50;57.20;;;;;;4959395;29;20391;-71
2022/08/09 12:06:55;;;;;;;3.87;3.57;;;27.50;57.00;;;;;;4960213;28;20868;-71
2022/08/09 12:09:25;;;;;;;5.17;4.47;;;27.50;57.10;;;;;;4959918;28;20399;-71
2022/08/09 12:12:04;;;;;;;3.80;3.50;;;27.50;57.00;;;;;;4958614;29;20437;-71
2022/08/09 12:14:51;;;;;;;4.00;3.60;;;27.60;57.00;;;;;;4959619;29;20398;-71
2022/08/09 12:17:18;;;;;;;3.80;3.50;;;27.60;56.80;;;;;;4942324;29;20461;-71
2022/08/09 12:19:49;;;;;;;4.20;3.90;;;27.60;56.70;;;;;;4958574;29;20403;-71
2022/08/09 12:22:19;;;;;;;4.77;4.27;;;27.70;56.70;;;;;;4958226;29;20442;-71
2022/08/09 12:24:49;;;;;;;4.10;3.70;;;27.70;56.60;;;;;;4958190;29;20893;-71
2022/08/09 12:27:19;;;;;;;4.77;4.00;;;27.70;56.60;;;;;;4958627;29;20399;-71
2022/08/09 12:29:55;;;;;;;4.83;4.33;;;27.80;56.40;;;;;;4942659;29;20819;-71
2022/08/09 12:32:25;;;;;;;4.07;3.77;;;27.80;56.30;;;;;;4959220;28;20445;-71
2022/08/09 12:34:59;;;;;;;4.23;3.70;;;27.80;56.30;;;;;;4959501;28;20961;-71
2022/08/09 12:37:39;;;;;;;3.80;3.50;;;27.90;56.20;;;;;;4958021;29;20534;-71
2022/08/09 12:40:10;;;;;;;6.10;3.90;;;27.90;56.20;;;;;;4959068;28;20411;-71
2022/08/09 12:42:42;;;;;;;6.97;3.67;;;27.90;56.60;;;;;;4958738;28;20433;-71
2022/08/09 12:45:10;;;;;;;3.70;3.40;;;28.00;56.10;;;;;;4957656;29;20506;-71
2022/08/09 12:47:39;;;;;;;3.90;3.60;;;28.00;56.00;;;;;;4957820;29;20423;-71
2022/08/09 12:50:16;;;;;;;3.63;3.33;;;28.00;55.90;;;;;;4958646;28;20419;-71
2022/08/09 12:52:45;;;;;;;3.80;3.50;;;28.00;55.70;;;;;;4957382;29;20438;-71
2022/08/09 12:55:21;;;;;;;3.83;3.53;;;28.10;55.90;;;;;;4940392;29;20446;-71
2022/08/09 12:57:47;;;;;;;3.87;3.57;;;28.10;55.90;;;;;;4957217;29;20498;-71
2022/08/09 13:00:20;;;;;;;4.40;4.00;;;28.10;55.80;;;;;;4925998;29;20494;-71
2022/08/09 13:02:47;;;;;;;4.17;3.77;;;28.10;55.80;;;;;;4959012;28;20427;-71
2022/08/09 13:05:15;;;;;;;3.83;3.53;;;28.20;55.80;;;;;;4958865;29;20399;-71
2022/08/09 13:07:40;;;;;;;4.03;3.73;;;28.20;55.80;;;;;;4958584;28;20459;-71
2022/08/09 13:10:10;;;;;;;3.93;3.30;;;28.20;55.70;;;;;;4957868;29;20426;-70